createdAt,value
2017-06-15T00:01:31.215Z,0
2017-06-15T00:03:01.723Z,0
2017-06-15T00:04:02.046Z,0
2017-06-15T00:05:16.689Z,0
2017-06-15T00:06:16.711Z,0
2017-06-15T00:07:16.734Z,0
2017-06-15T00:08:02.144Z,0
2017-06-15T00:09:31.400Z,0
2017-06-15T00:10:16.505Z,0
2017-06-15T00:11:02.214Z,0
2017-06-15T00:12:16.855Z,0
2017-06-15T00:13:16.878Z,0
2017-06-15T00:14:01.982Z,0
2017-06-15T00:16:02.032Z,0
2017-06-15T00:17:02.057Z,0
2017-06-15T00:18:02.387Z,0
2017-06-15T00:19:17.024Z,0
2017-06-15T00:20:02.429Z,0
2017-06-15T00:21:16.779Z,0
2017-06-15T00:22:02.483Z,0
2017-06-15T00:23:02.507Z,0
2017-06-15T00:24:02.527Z,0
2017-06-15T00:25:17.173Z,0
2017-06-15T00:26:02.575Z,0
2017-06-15T00:27:17.215Z,0
2017-06-15T00:28:02.625Z,0
2017-06-15T00:29:02.646Z,0
2017-06-15T00:30:02.675Z,0
2017-06-15T00:31:02.690Z,0
2017-06-15T00:32:02.720Z,0
2017-06-15T00:33:02.743Z,0
2017-06-15T00:34:02.768Z,0
2017-06-15T00:36:02.518Z,0
2017-06-15T00:37:02.849Z,0
2017-06-15T00:38:02.862Z,0
2017-06-15T00:39:02.884Z,0
2017-06-15T00:40:02.909Z,0
2017-06-15T00:41:02.631Z,0
2017-06-15T00:42:02.962Z,0
2017-06-15T00:43:17.597Z,0
2017-06-15T00:44:03.008Z,0
2017-06-15T00:45:03.025Z,0
2017-06-15T00:46:03.076Z,0
2017-06-15T00:47:03.079Z,0
2017-06-15T00:48:03.109Z,0
2017-06-15T00:49:03.127Z,0
2017-06-15T00:50:17.812Z,0
2017-06-15T00:51:03.170Z,0
2017-06-15T00:52:03.198Z,0
2017-06-15T00:53:17.840Z,0
2017-06-15T00:54:03.250Z,0
2017-06-15T00:55:03.272Z,0
2017-06-15T00:56:03.338Z,0
2017-06-15T00:57:17.930Z,0
2017-06-15T00:58:03.032Z,0
2017-06-15T00:59:03.363Z,0
2017-06-15T01:00:03.390Z,0
2017-06-15T01:01:03.409Z,0
2017-06-15T01:02:03.438Z,0
2017-06-15T01:03:18.079Z,0
2017-06-15T01:04:03.478Z,0
2017-06-15T01:05:03.511Z,0
2017-06-15T01:06:17.841Z,0
2017-06-15T01:07:18.169Z,0
2017-06-15T01:08:03.572Z,0
2017-06-15T01:09:03.604Z,0
2017-06-15T01:10:17.935Z,0
2017-06-15T01:11:03.645Z,0
2017-06-15T01:12:03.666Z,0
2017-06-15T01:13:18.008Z,0
2017-06-15T01:14:03.714Z,0
2017-06-15T01:15:18.356Z,0
2017-06-15T01:17:03.791Z,0
2017-06-15T01:19:03.843Z,0
2017-06-15T01:21:18.502Z,0
2017-06-15T01:22:03.905Z,0
2017-06-15T01:23:03.932Z,0
2017-06-15T01:24:33.189Z,0
2017-06-15T01:25:33.212Z,0
2017-06-15T01:26:04.350Z,0
2017-06-15T01:27:18.644Z,0
2017-06-15T01:28:04.047Z,0
2017-06-15T01:29:18.687Z,0
2017-06-15T01:30:04.097Z,0
2017-06-15T01:31:04.119Z,0
2017-06-15T01:32:04.140Z,0
2017-06-15T01:33:04.173Z,0
2017-06-15T01:34:04.190Z,0
2017-06-15T01:35:04.218Z,0
2017-06-15T01:36:04.237Z,0
2017-06-15T01:37:03.956Z,0
2017-06-15T01:39:04.317Z,0
2017-06-15T01:40:04.331Z,0
2017-06-15T01:41:04.360Z,0
2017-06-15T01:42:18.998Z,0
2017-06-15T01:43:18.727Z,0
2017-06-15T01:44:04.424Z,0
2017-06-15T01:45:18.764Z,0
2017-06-15T01:46:04.480Z,0
2017-06-15T01:47:19.111Z,0
2017-06-15T01:48:04.525Z,0
2017-06-15T01:49:04.541Z,0
2017-06-15T01:50:04.620Z,0
2017-06-15T01:51:04.588Z,0
2017-06-15T01:52:04.610Z,0
2017-06-15T01:53:04.637Z,0
2017-06-15T01:54:04.354Z,0
2017-06-15T01:55:19.307Z,0
2017-06-15T01:56:19.322Z,0
2017-06-15T01:57:04.768Z,0
2017-06-15T01:58:19.375Z,0
2017-06-15T01:59:04.776Z,0
2017-06-15T02:00:19.417Z,0
2017-06-15T02:01:04.520Z,0
2017-06-15T02:02:19.465Z,0
2017-06-15T02:03:04.872Z,0
2017-06-15T02:05:04.918Z,0
2017-06-15T02:06:04.941Z,0
2017-06-15T02:08:19.607Z,0
2017-06-15T02:09:19.630Z,0
2017-06-15T02:10:19.348Z,0
2017-06-15T02:11:19.676Z,0
2017-06-15T02:12:05.084Z,0
2017-06-15T02:13:05.118Z,0
2017-06-15T02:14:04.823Z,0
2017-06-15T02:15:04.850Z,0
2017-06-15T02:16:05.180Z,0
2017-06-15T02:17:19.817Z,0
2017-06-15T02:18:05.222Z,0
2017-06-15T02:19:05.244Z,0
2017-06-15T02:20:05.268Z,0
2017-06-15T02:21:05.347Z,0
2017-06-15T02:22:05.319Z,0
2017-06-15T02:23:05.343Z,0
2017-06-15T02:24:05.060Z,0
2017-06-15T02:25:05.388Z,0
2017-06-15T02:26:05.412Z,0
2017-06-15T02:27:19.750Z,0
2017-06-15T02:28:05.458Z,0
2017-06-15T02:29:20.105Z,0
2017-06-15T02:30:05.511Z,0
2017-06-15T02:31:05.580Z,0
2017-06-15T02:32:20.173Z,0
2017-06-15T02:33:05.576Z,0
2017-06-15T02:34:20.214Z,0
2017-06-15T02:36:05.644Z,5
2017-06-15T02:37:05.665Z,5
2017-06-15T02:38:05.693Z,5
2017-06-15T02:40:05.435Z,5
2017-06-15T02:41:05.457Z,5
2017-06-15T02:42:05.782Z,5
2017-06-15T02:43:20.425Z,5
2017-06-15T02:44:20.145Z,5
2017-06-15T02:45:20.166Z,5
2017-06-15T02:46:34.807Z,5
2017-06-15T02:47:05.900Z,5
2017-06-15T02:48:20.238Z,10
2017-06-15T02:49:06.200Z,10
2017-06-15T02:50:05.970Z,10
2017-06-15T02:51:05.993Z,10
2017-06-15T02:52:06.016Z,10
2017-06-15T02:53:06.039Z,10
2017-06-15T02:54:06.062Z,10
2017-06-15T02:55:06.136Z,10
2017-06-15T02:56:05.858Z,15
2017-06-15T02:57:06.131Z,15
2017-06-15T02:58:06.154Z,15
2017-06-15T02:59:06.180Z,15
2017-06-15T03:00:20.817Z,20
2017-06-15T03:01:20.842Z,20
2017-06-15T03:02:05.944Z,20
2017-06-15T03:03:06.271Z,20
2017-06-15T03:04:20.910Z,25
2017-06-15T03:05:06.322Z,25
2017-06-15T03:07:06.365Z,25
2017-06-15T03:08:06.083Z,30
2017-06-15T03:09:06.415Z,30
2017-06-15T03:10:06.131Z,30
2017-06-15T03:11:06.458Z,30
2017-06-15T03:12:06.183Z,35
2017-06-15T03:13:06.508Z,35
2017-06-15T03:14:06.528Z,35
2017-06-15T03:15:06.562Z,35
2017-06-15T03:16:06.575Z,40
2017-06-15T03:17:21.215Z,40
2017-06-15T03:18:06.624Z,40
2017-06-15T03:19:21.263Z,40
2017-06-15T03:20:20.678Z,45
2017-06-15T03:21:06.692Z,45
2017-06-15T03:22:06.717Z,45
2017-06-15T03:23:06.744Z,45
2017-06-15T03:24:06.770Z,45
2017-06-15T03:26:06.810Z,50
2017-06-15T03:27:06.526Z,50
2017-06-15T03:28:06.858Z,50
2017-06-15T03:29:21.497Z,55
2017-06-15T03:30:06.927Z,55
2017-06-15T03:31:21.544Z,55
2017-06-15T03:32:21.566Z,55
2017-06-15T03:33:06.977Z,55
2017-06-15T03:34:06.996Z,60
2017-06-15T03:37:06.767Z,60
2017-06-15T03:38:06.793Z,65
2017-06-15T03:39:21.735Z,70
2017-06-15T03:40:06.835Z,70
2017-06-15T03:41:07.160Z,70
2017-06-15T03:42:07.194Z,70
2017-06-15T03:43:07.209Z,70
2017-06-15T03:44:21.847Z,75
2017-06-15T03:45:06.949Z,75
2017-06-15T03:46:06.979Z,75
2017-06-15T03:47:07.301Z,80
2017-06-15T03:48:07.018Z,80
2017-06-15T03:49:07.045Z,80
2017-06-15T03:50:07.399Z,85
2017-06-15T03:51:07.391Z,85
2017-06-15T03:52:07.426Z,90
2017-06-15T03:53:22.063Z,95
2017-06-15T03:54:07.159Z,100
2017-06-15T03:55:22.110Z,115
2017-06-15T03:56:07.567Z,130
2017-06-15T03:57:22.163Z,135
2017-06-15T03:58:07.562Z,115
2017-06-15T03:59:07.576Z,140
2017-06-15T04:00:07.608Z,150
2017-06-15T04:01:07.625Z,145
2017-06-15T04:02:07.374Z,135
2017-06-15T04:03:07.674Z,130
2017-06-15T04:04:07.702Z,130
2017-06-15T04:05:07.723Z,130
2017-06-15T04:06:07.442Z,135
2017-06-15T04:07:22.387Z,150
2017-06-15T04:08:07.833Z,210
2017-06-15T04:09:07.813Z,385
2017-06-15T04:11:07.862Z,685
2017-06-15T04:13:07.911Z,245
2017-06-15T04:14:07.978Z,140
2017-06-15T04:16:22.603Z,100
2017-06-15T04:17:22.631Z,100
2017-06-15T04:18:08.034Z,100
2017-06-15T04:19:07.754Z,95
2017-06-15T04:20:08.083Z,100
2017-06-15T04:21:37.342Z,90
2017-06-15T04:22:22.751Z,90
2017-06-15T04:23:22.483Z,90
2017-06-15T04:24:08.180Z,90
2017-06-15T04:25:07.901Z,90
2017-06-15T04:26:08.225Z,90
2017-06-15T04:27:07.951Z,90
2017-06-15T04:28:08.273Z,95
2017-06-15T04:29:08.302Z,100
2017-06-15T04:30:08.325Z,105
2017-06-15T04:31:08.402Z,105
2017-06-15T04:32:22.996Z,115
2017-06-15T04:33:23.018Z,115
2017-06-15T04:34:23.039Z,120
2017-06-15T04:35:08.450Z,120
2017-06-15T04:36:08.521Z,125
2017-06-15T04:37:08.499Z,115
2017-06-15T04:38:08.523Z,115
2017-06-15T04:39:23.174Z,120
2017-06-15T04:40:08.575Z,125
2017-06-15T04:41:08.289Z,130
2017-06-15T04:42:08.315Z,135
2017-06-15T04:43:08.643Z,145
2017-06-15T04:44:08.669Z,150
2017-06-15T04:45:08.697Z,155
2017-06-15T04:46:23.340Z,165
2017-06-15T04:47:08.440Z,175
2017-06-15T04:49:08.792Z,200
2017-06-15T04:50:23.182Z,220
2017-06-15T04:51:08.841Z,250
2017-06-15T04:52:38.100Z,375
2017-06-15T04:53:08.887Z,460
2017-06-15T04:55:23.556Z,455
2017-06-15T04:56:08.661Z,715
2017-06-15T04:57:23.605Z,1155
2017-06-15T04:58:23.629Z,1460
2017-06-15T04:59:09.044Z,1435
2017-06-15T05:00:08.760Z,1415
2017-06-15T05:01:09.122Z,1375
2017-06-15T05:03:09.145Z,1365
2017-06-15T05:05:09.197Z,1445
2017-06-15T05:06:09.278Z,1715
2017-06-15T05:07:09.259Z,1525
2017-06-15T05:08:23.902Z,1290
2017-06-15T05:09:09.315Z,1305
2017-06-15T05:10:23.960Z,1300
2017-06-15T05:11:09.373Z,1135
2017-06-15T05:12:09.405Z,1370
2017-06-15T05:13:09.434Z,1280
2017-06-15T05:14:09.464Z,1250
2017-06-15T05:15:09.499Z,1380
2017-06-15T05:16:09.221Z,1415
2017-06-15T05:17:09.562Z,1470
2017-06-15T05:18:09.589Z,1455
2017-06-15T05:20:09.355Z,1465
2017-06-15T05:21:24.307Z,1420
2017-06-15T05:22:09.722Z,1450
2017-06-15T05:23:23.770Z,1290
2017-06-15T05:24:09.480Z,1315
2017-06-15T05:25:09.821Z,1340
2017-06-15T05:26:09.861Z,1420
2017-06-15T05:27:09.895Z,1380
2017-06-15T05:29:09.958Z,1460
2017-06-15T05:30:09.993Z,1490
2017-06-15T05:31:09.725Z,1430
2017-06-15T05:32:10.064Z,1490
2017-06-15T05:33:09.797Z,1485
2017-06-15T05:34:09.829Z,1515
2017-06-15T05:35:09.562Z,1515
2017-06-15T05:36:09.900Z,1395
2017-06-15T05:37:10.240Z,1370
2017-06-15T05:38:24.587Z,1455
2017-06-15T05:39:24.928Z,1510
2017-06-15T05:40:10.350Z,1495
2017-06-15T05:41:10.376Z,1160
2017-06-15T05:42:25.035Z,1420
2017-06-15T05:43:10.447Z,1415
2017-06-15T05:44:09.879Z,1440
2017-06-15T05:46:10.554Z,1570
2017-06-15T05:48:10.331Z,1520
2017-06-15T05:49:10.362Z,1525
2017-06-15T05:50:10.399Z,1345
2017-06-15T05:51:10.439Z,1545
2017-06-15T05:52:25.091Z,1540
2017-06-15T05:53:10.813Z,1515
2017-06-15T05:54:40.091Z,1380
2017-06-15T05:55:40.127Z,1400
2017-06-15T05:56:40.163Z,1450
2017-06-15T05:57:25.583Z,1415
2017-06-15T05:59:10.737Z,1140
2017-06-15T06:00:12.330Z,1310
2017-06-15T06:02:10.843Z,1345
2017-06-15T06:03:11.181Z,1385
2017-06-15T06:04:11.218Z,1325
2017-06-15T06:05:11.284Z,1445
2017-06-15T06:06:11.299Z,1410
2017-06-15T06:07:11.027Z,1385
2017-06-15T06:08:11.107Z,1400
2017-06-15T06:09:11.405Z,1365
2017-06-15T06:10:11.468Z,1400
2017-06-15T06:11:11.480Z,1350
2017-06-15T06:12:11.214Z,1345
2017-06-15T06:13:11.558Z,1340
2017-06-15T06:14:26.212Z,1405
2017-06-15T06:15:11.634Z,1385
2017-06-15T06:16:11.670Z,1365
2017-06-15T06:17:11.403Z,1230
2017-06-15T06:18:11.743Z,1065
2017-06-15T06:19:11.477Z,1110
2017-06-15T06:20:11.523Z,1335
2017-06-15T06:21:26.178Z,1250
2017-06-15T06:22:11.896Z,1155
2017-06-15T06:23:11.634Z,1155
2017-06-15T06:24:11.975Z,1215
2017-06-15T06:25:26.628Z,1210
2017-06-15T06:26:41.290Z,1235
2017-06-15T06:27:26.403Z,1215
2017-06-15T06:28:11.823Z,1155
2017-06-15T06:29:11.855Z,1175
2017-06-15T06:31:11.934Z,1200
2017-06-15T06:32:11.971Z,1215
2017-06-15T06:33:12.007Z,1270
2017-06-15T06:34:12.355Z,1265
2017-06-15T06:36:12.435Z,1280
2017-06-15T06:37:12.161Z,1260
2017-06-15T06:38:12.501Z,1245
2017-06-15T06:39:12.539Z,1255
2017-06-15T06:40:12.322Z,1280
2017-06-15T06:41:12.618Z,1240
2017-06-15T06:42:41.896Z,1240
2017-06-15T06:43:12.695Z,1220
2017-06-15T06:44:27.658Z,1255
2017-06-15T06:45:27.390Z,1245
2017-06-15T06:46:12.812Z,1275
2017-06-15T06:47:12.845Z,1295
2017-06-15T06:48:12.887Z,1220
2017-06-15T06:49:12.668Z,1175
2017-06-15T06:50:12.663Z,1175
2017-06-15T06:52:13.041Z,1110
2017-06-15T06:53:13.090Z,1225
2017-06-15T06:54:27.745Z,1160
2017-06-15T06:55:13.152Z,1160
2017-06-15T06:56:42.436Z,1155
2017-06-15T06:57:13.232Z,1155
2017-06-15T06:58:12.967Z,1120
2017-06-15T06:59:27.930Z,1010
2017-06-15T07:00:13.601Z,1015
2017-06-15T07:01:13.385Z,930
2017-06-15T07:02:13.431Z,940
2017-06-15T07:03:28.084Z,965
2017-06-15T07:04:13.533Z,975
2017-06-15T07:05:28.160Z,950
2017-06-15T07:06:13.579Z,930
2017-06-15T07:07:13.627Z,890
2017-06-15T07:08:13.658Z,870
2017-06-15T07:09:13.696Z,865
2017-06-15T07:10:13.765Z,830
2017-06-15T07:11:28.397Z,795
2017-06-15T07:12:43.074Z,780
2017-06-15T07:13:13.856Z,765
2017-06-15T07:14:13.940Z,740
2017-06-15T07:15:13.930Z,710
2017-06-15T07:16:43.208Z,645
2017-06-15T07:17:28.627Z,650
2017-06-15T07:18:13.743Z,640
2017-06-15T07:19:28.704Z,590
2017-06-15T07:20:13.820Z,590
2017-06-15T07:21:14.161Z,590
2017-06-15T07:22:43.450Z,685
2017-06-15T07:24:14.285Z,730
2017-06-15T07:25:13.708Z,715
2017-06-15T07:26:14.101Z,665
2017-06-15T07:27:14.394Z,710
2017-06-15T07:28:14.125Z,640
2017-06-15T07:29:14.470Z,710
2017-06-15T07:30:14.561Z,840
2017-06-15T07:31:14.546Z,1145
2017-06-15T07:32:13.981Z,1050
2017-06-15T07:33:29.244Z,875
2017-06-15T07:34:29.282Z,860
2017-06-15T07:35:14.702Z,825
2017-06-15T07:36:14.435Z,830
2017-06-15T07:37:14.779Z,845
2017-06-15T07:39:14.546Z,845
2017-06-15T07:40:14.589Z,860
2017-06-15T07:41:29.551Z,875
2017-06-15T07:42:14.970Z,885
2017-06-15T07:43:29.626Z,905
2017-06-15T07:44:44.286Z,930
2017-06-15T07:45:14.781Z,905
2017-06-15T07:46:44.056Z,800
2017-06-15T07:47:15.157Z,790
2017-06-15T07:48:15.193Z,785
2017-06-15T07:49:44.471Z,770
2017-06-15T07:50:14.969Z,745
2017-06-15T07:51:15.317Z,735
2017-06-15T07:52:29.966Z,740
2017-06-15T07:53:15.134Z,735
2017-06-15T07:54:15.431Z,725
2017-06-15T07:55:15.470Z,675
2017-06-15T07:56:15.553Z,680
2017-06-15T07:58:15.277Z,735
2017-06-15T07:59:15.616Z,755
2017-06-15T08:00:15.349Z,740
2017-06-15T08:01:15.388Z,730
2017-06-15T08:02:16.031Z,725
2017-06-15T08:03:29.782Z,680
2017-06-15T08:04:15.199Z,685
2017-06-15T08:06:15.577Z,680
2017-06-15T08:07:15.650Z,640
2017-06-15T08:08:30.571Z,680
2017-06-15T08:09:15.735Z,625
2017-06-15T08:10:15.727Z,615
2017-06-15T08:11:15.760Z,615
2017-06-15T08:12:16.104Z,590
2017-06-15T08:13:16.142Z,590
2017-06-15T08:14:15.573Z,590
2017-06-15T08:15:30.840Z,575
2017-06-15T08:16:16.252Z,570
2017-06-15T08:17:16.291Z,565
2017-06-15T08:18:16.079Z,555
2017-06-15T08:19:16.369Z,555
2017-06-15T08:20:30.724Z,550
2017-06-15T08:21:31.066Z,520
2017-06-15T08:22:16.233Z,465
2017-06-15T08:23:16.216Z,510
2017-06-15T08:24:16.253Z,500
2017-06-15T08:25:16.598Z,475
2017-06-15T08:26:16.632Z,445
2017-06-15T08:27:16.373Z,435
2017-06-15T08:28:16.707Z,475
2017-06-15T08:29:16.747Z,430
2017-06-15T08:30:16.484Z,445
2017-06-15T08:31:16.515Z,490
2017-06-15T08:32:16.557Z,465
2017-06-15T08:33:16.892Z,475
2017-06-15T08:34:16.629Z,470
2017-06-15T08:35:31.289Z,460
2017-06-15T08:36:31.372Z,460
2017-06-15T08:37:17.042Z,455
2017-06-15T08:38:31.699Z,450
2017-06-15T08:39:17.116Z,435
2017-06-15T08:40:16.851Z,430
2017-06-15T08:41:17.195Z,410
2017-06-15T08:42:17.225Z,430
2017-06-15T08:43:17.294Z,435
2017-06-15T08:44:17.298Z,445
2017-06-15T08:45:31.961Z,420
2017-06-15T08:46:17.380Z,425
2017-06-15T08:47:17.412Z,430
2017-06-15T08:48:32.067Z,435
2017-06-15T08:49:31.801Z,435
2017-06-15T08:50:17.519Z,440
2017-06-15T08:51:17.597Z,440
2017-06-15T08:52:32.218Z,435
2017-06-15T08:53:32.253Z,445
2017-06-15T08:54:17.672Z,435
2017-06-15T08:55:17.403Z,425
2017-06-15T08:56:17.742Z,430
2017-06-15T08:57:17.782Z,420
2017-06-15T08:58:17.829Z,430
2017-06-15T08:59:17.852Z,375
2017-06-15T09:00:17.283Z,420
2017-06-15T09:01:17.929Z,415
2017-06-15T09:02:17.967Z,420
2017-06-15T09:03:18.002Z,415
2017-06-15T09:04:46.976Z,400
2017-06-15T09:05:18.077Z,370
2017-06-15T09:06:18.107Z,355
2017-06-15T09:07:18.147Z,355
2017-06-15T09:08:32.853Z,330
2017-06-15T09:09:18.523Z,340
2017-06-15T09:10:18.256Z,325
2017-06-15T09:11:18.292Z,320
2017-06-15T09:12:18.334Z,335
2017-06-15T09:13:18.365Z,330
2017-06-15T09:15:18.487Z,315
2017-06-15T09:16:18.474Z,325
2017-06-15T09:17:18.514Z,305
2017-06-15T09:18:18.246Z,315
2017-06-15T09:19:18.584Z,310
2017-06-15T09:20:18.620Z,315
2017-06-15T09:21:18.655Z,315
2017-06-15T09:22:32.758Z,320
2017-06-15T09:23:33.049Z,305
2017-06-15T09:24:33.385Z,305
2017-06-15T09:25:18.498Z,310
2017-06-15T09:26:18.837Z,310
2017-06-15T09:28:18.910Z,300
2017-06-15T09:29:18.641Z,305
2017-06-15T09:30:18.685Z,305
2017-06-15T09:31:18.715Z,305
2017-06-15T09:32:18.752Z,305
2017-06-15T09:33:19.093Z,300
2017-06-15T09:34:33.753Z,295
2017-06-15T09:35:19.165Z,290
2017-06-15T09:36:18.894Z,285
2017-06-15T09:37:18.933Z,290
2017-06-15T09:38:33.894Z,295
2017-06-15T09:39:18.733Z,290
2017-06-15T09:40:33.662Z,290
2017-06-15T09:41:19.129Z,290
2017-06-15T09:42:19.115Z,290
2017-06-15T09:44:19.548Z,285
2017-06-15T09:45:19.225Z,280
2017-06-15T09:46:19.565Z,280
2017-06-15T09:47:19.598Z,270
2017-06-15T09:48:34.256Z,275
2017-06-15T09:49:19.676Z,275
2017-06-15T09:50:19.403Z,270
2017-06-15T09:51:19.790Z,275
2017-06-15T09:52:19.775Z,275
2017-06-15T09:53:19.811Z,270
2017-06-15T09:54:19.845Z,270
2017-06-15T09:55:34.199Z,265
2017-06-15T09:56:34.537Z,265
2017-06-15T09:57:19.951Z,265
2017-06-15T09:58:19.987Z,265
2017-06-15T09:59:20.020Z,270
2017-06-15T10:00:20.109Z,265
2017-06-15T10:01:19.790Z,265
2017-06-15T10:02:34.450Z,265
2017-06-15T10:03:19.860Z,265
2017-06-15T10:04:34.821Z,270
2017-06-15T10:05:34.854Z,265
2017-06-15T10:06:19.965Z,265
2017-06-15T10:07:34.925Z,265
2017-06-15T10:08:34.658Z,265
2017-06-15T10:09:20.372Z,265
2017-06-15T10:10:20.106Z,260
2017-06-15T10:11:20.446Z,260
2017-06-15T10:12:20.477Z,260
2017-06-15T10:13:20.515Z,265
2017-06-15T10:15:20.583Z,265
2017-06-15T10:17:20.701Z,260
2017-06-15T10:18:49.932Z,255
2017-06-15T10:19:20.718Z,255
2017-06-15T10:20:20.760Z,255
2017-06-15T10:21:35.111Z,250
2017-06-15T10:22:35.451Z,255
2017-06-15T10:23:20.861Z,250
2017-06-15T10:24:20.895Z,245
2017-06-15T10:25:20.632Z,240
2017-06-15T10:26:35.334Z,240
2017-06-15T10:27:35.617Z,240
2017-06-15T10:28:21.032Z,240
2017-06-15T10:29:21.069Z,240
2017-06-15T10:30:21.103Z,240
2017-06-15T10:31:21.137Z,240
2017-06-15T10:32:21.170Z,240
2017-06-15T10:33:21.205Z,235
2017-06-15T10:34:21.242Z,235
2017-06-15T10:35:20.982Z,235
2017-06-15T10:36:35.979Z,235
2017-06-15T10:37:21.045Z,235
2017-06-15T10:38:36.047Z,240
2017-06-15T10:39:21.107Z,240
2017-06-15T10:40:35.767Z,240
2017-06-15T10:41:21.176Z,235
2017-06-15T10:42:35.833Z,235
2017-06-15T10:43:36.175Z,235
2017-06-15T10:44:21.291Z,230
2017-06-15T10:45:21.619Z,225
2017-06-15T10:46:21.391Z,230
2017-06-15T10:49:36.424Z,235
2017-06-15T10:51:21.520Z,230
2017-06-15T10:52:21.550Z,230
2017-06-15T10:53:36.510Z,230
2017-06-15T10:54:21.625Z,230
2017-06-15T10:55:21.690Z,225
2017-06-15T10:56:51.232Z,225
2017-06-15T10:57:36.652Z,220
2017-06-15T10:58:22.060Z,220
2017-06-15T10:59:36.713Z,220
2017-06-15T11:00:36.453Z,220
2017-06-15T11:01:22.210Z,220
2017-06-15T11:02:22.229Z,215
2017-06-15T11:03:22.229Z,215
2017-06-15T11:04:22.261Z,215
2017-06-15T11:06:22.331Z,215
2017-06-15T11:07:36.986Z,210
2017-06-15T11:08:22.092Z,210
2017-06-15T11:09:37.049Z,215
2017-06-15T11:10:37.083Z,215
2017-06-15T11:11:22.197Z,215
2017-06-15T11:12:37.151Z,215
2017-06-15T11:13:22.566Z,215
2017-06-15T11:14:22.598Z,215
2017-06-15T11:16:22.361Z,215
2017-06-15T11:17:22.703Z,215
2017-06-15T11:18:22.427Z,210
2017-06-15T11:19:22.466Z,205
2017-06-15T11:20:22.801Z,200
2017-06-15T11:21:22.836Z,200
2017-06-15T11:23:22.950Z,195
2017-06-15T11:24:22.639Z,195
2017-06-15T11:25:37.586Z,195
2017-06-15T11:26:22.724Z,200
2017-06-15T11:27:22.473Z,200
2017-06-15T11:28:23.066Z,200
2017-06-15T11:29:22.798Z,200
2017-06-15T11:30:37.751Z,200
2017-06-15T11:31:22.863Z,200
2017-06-15T11:32:22.895Z,205
2017-06-15T11:33:22.928Z,200
2017-06-15T11:34:23.265Z,205
2017-06-15T11:35:23.298Z,205
2017-06-15T11:36:23.329Z,205
2017-06-15T11:37:23.063Z,205
2017-06-15T11:38:23.394Z,200
2017-06-15T11:39:23.427Z,190
2017-06-15T11:40:23.501Z,195
2017-06-15T11:41:38.113Z,200
2017-06-15T11:42:23.528Z,195
2017-06-15T11:43:22.950Z,180
2017-06-15T11:44:23.594Z,175
2017-06-15T11:45:23.626Z,175
2017-06-15T11:46:23.658Z,180
2017-06-15T11:47:23.689Z,195
2017-06-15T11:48:23.731Z,185
2017-06-15T11:49:23.756Z,190
2017-06-15T11:50:38.457Z,180
2017-06-15T11:51:23.872Z,175
2017-06-15T11:53:23.589Z,175
2017-06-15T11:54:23.969Z,175
2017-06-15T11:55:23.952Z,175
2017-06-15T11:56:23.680Z,175
2017-06-15T11:57:23.723Z,175
2017-06-15T11:58:38.669Z,180
2017-06-15T11:59:24.083Z,175
2017-06-15T12:00:23.914Z,175
2017-06-15T12:01:38.769Z,180
2017-06-15T12:03:24.234Z,175
2017-06-15T12:04:38.866Z,170
2017-06-15T12:06:24.364Z,175
2017-06-15T12:07:24.342Z,175
2017-06-15T12:08:24.379Z,180
2017-06-15T12:09:24.407Z,180
2017-06-15T12:10:24.482Z,180
2017-06-15T12:11:38.791Z,180
2017-06-15T12:12:24.503Z,185
2017-06-15T12:13:24.545Z,185
2017-06-15T12:14:24.624Z,185
2017-06-15T12:15:39.224Z,190
2017-06-15T12:16:24.634Z,180
2017-06-15T12:17:24.667Z,185
2017-06-15T12:18:39.320Z,185
2017-06-15T12:19:24.732Z,190
2017-06-15T12:20:39.433Z,185
2017-06-15T12:21:24.797Z,185
2017-06-15T12:22:24.526Z,190
2017-06-15T12:23:24.861Z,190
2017-06-15T12:24:24.890Z,185
2017-06-15T12:25:24.927Z,185
2017-06-15T12:26:25.258Z,185
2017-06-15T12:27:24.994Z,185
2017-06-15T12:29:24.753Z,185
2017-06-15T12:30:39.757Z,185
2017-06-15T12:31:54.054Z,185
2017-06-15T12:32:39.819Z,185
2017-06-15T12:33:25.189Z,185
2017-06-15T12:34:39.836Z,185
2017-06-15T12:35:25.248Z,185
2017-06-15T12:36:39.899Z,190
2017-06-15T12:37:25.364Z,190
2017-06-15T12:38:25.345Z,190
2017-06-15T12:39:25.075Z,190
2017-06-15T12:40:25.408Z,190
2017-06-15T12:41:25.444Z,190
2017-06-15T12:42:25.470Z,180
2017-06-15T12:43:25.206Z,190
2017-06-15T12:44:25.235Z,190
2017-06-15T12:45:25.568Z,185
2017-06-15T12:46:25.602Z,185
2017-06-15T12:47:40.258Z,185
2017-06-15T12:48:39.985Z,185
2017-06-15T12:49:40.012Z,185
2017-06-15T12:50:40.047Z,190
2017-06-15T12:51:25.466Z,190
2017-06-15T12:52:25.794Z,190
2017-06-15T12:53:25.521Z,190
2017-06-15T12:54:25.554Z,190
2017-06-15T12:56:25.921Z,185
2017-06-15T12:57:25.958Z,195
2017-06-15T12:58:25.984Z,195
2017-06-15T12:59:26.049Z,195
2017-06-15T13:00:26.049Z,195
2017-06-15T13:01:26.130Z,195
2017-06-15T13:02:26.116Z,200
2017-06-15T13:03:26.152Z,195
2017-06-15T13:04:26.184Z,195
2017-06-15T13:05:40.827Z,195
2017-06-15T13:06:40.860Z,195
2017-06-15T13:07:26.276Z,200
2017-06-15T13:08:26.306Z,195
2017-06-15T13:09:26.336Z,195
2017-06-15T13:10:26.369Z,190
2017-06-15T13:11:26.401Z,190
2017-06-15T13:12:26.733Z,190
2017-06-15T13:13:26.162Z,190
2017-06-15T13:14:26.191Z,190
2017-06-15T13:15:26.529Z,190
2017-06-15T13:16:41.179Z,190
2017-06-15T13:17:41.215Z,190
2017-06-15T13:18:26.628Z,190
2017-06-15T13:19:26.656Z,200
2017-06-15T13:20:26.691Z,200
2017-06-15T13:21:26.722Z,205
2017-06-15T13:22:26.749Z,205
2017-06-15T13:23:26.833Z,205
2017-06-15T13:24:26.819Z,205
2017-06-15T13:25:26.850Z,205
2017-06-15T13:26:26.892Z,210
2017-06-15T13:27:26.965Z,210
2017-06-15T13:28:26.642Z,210
2017-06-15T13:29:26.973Z,210
2017-06-15T13:30:27.013Z,200
2017-06-15T13:31:41.662Z,210
2017-06-15T13:32:26.771Z,210
2017-06-15T13:33:27.102Z,205
2017-06-15T13:34:27.146Z,205
2017-06-15T13:35:27.166Z,205
2017-06-15T13:36:26.904Z,200
2017-06-15T13:37:41.851Z,205
2017-06-15T13:38:41.883Z,205
2017-06-15T13:39:41.914Z,205
2017-06-15T13:40:27.332Z,205
2017-06-15T13:41:27.359Z,205
2017-06-15T13:42:27.397Z,205
2017-06-15T13:43:42.342Z,205
2017-06-15T13:45:42.108Z,205
2017-06-15T13:46:27.530Z,205
2017-06-15T13:47:26.943Z,205
2017-06-15T13:48:27.580Z,200
2017-06-15T13:49:27.612Z,200
2017-06-15T13:50:42.266Z,200
2017-06-15T13:51:27.681Z,200
2017-06-15T13:52:27.710Z,200
2017-06-15T13:53:42.063Z,205
2017-06-15T13:54:42.397Z,205
2017-06-15T13:55:27.499Z,205
2017-06-15T13:56:27.841Z,205
2017-06-15T13:57:27.866Z,210
2017-06-15T13:58:27.601Z,205
2017-06-15T13:59:27.629Z,205
2017-06-15T14:00:27.997Z,200
2017-06-15T14:01:28.003Z,205
2017-06-15T14:02:42.650Z,205
2017-06-15T14:03:28.062Z,200
2017-06-15T14:04:42.709Z,200
2017-06-15T14:05:28.130Z,200
2017-06-15T14:06:42.773Z,195
2017-06-15T14:07:28.187Z,200
2017-06-15T14:08:28.218Z,195
2017-06-15T14:09:42.565Z,195
2017-06-15T14:10:28.280Z,195
2017-06-15T14:11:28.316Z,195
2017-06-15T14:12:28.349Z,195
2017-06-15T14:13:28.375Z,195
2017-06-15T14:14:28.406Z,195
2017-06-15T14:15:28.441Z,195
2017-06-15T14:16:28.470Z,195
2017-06-15T14:17:43.174Z,200
2017-06-15T14:18:28.571Z,200
2017-06-15T14:19:28.564Z,200
2017-06-15T14:20:28.596Z,200
2017-06-15T14:21:28.632Z,200
2017-06-15T14:22:28.664Z,195
2017-06-15T14:23:28.691Z,200
2017-06-15T14:24:28.727Z,195
2017-06-15T14:25:43.077Z,190
2017-06-15T14:26:28.789Z,195
2017-06-15T14:27:28.821Z,195
2017-06-15T14:28:28.852Z,200
2017-06-15T14:29:28.880Z,200
2017-06-15T14:30:28.915Z,195
2017-06-15T14:31:28.949Z,195
2017-06-15T14:32:28.976Z,200
2017-06-15T14:33:29.011Z,195
2017-06-15T14:34:29.041Z,195
2017-06-15T14:35:29.074Z,185
2017-06-15T14:36:29.107Z,190
2017-06-15T14:37:29.135Z,190
2017-06-15T14:38:58.407Z,190
2017-06-15T14:39:29.201Z,190
2017-06-15T14:40:58.478Z,185
2017-06-15T14:41:28.964Z,185
2017-06-15T14:42:43.914Z,185
2017-06-15T14:43:29.333Z,185
2017-06-15T14:44:29.358Z,180
2017-06-15T14:45:29.088Z,185
2017-06-15T14:46:29.118Z,170
2017-06-15T14:48:29.285Z,185
2017-06-15T14:49:29.212Z,185